Terminal Aerodrome Forecast
Issued by NWS

Home | Current Version | Previous Version | Graphics & Text | Print | Product List | Glossary On
Versions: 1 2 3 4 5 6 7 8 9 10 11 12 13 14 15 16 17 18 19 20 21
000
FTUS43 KGRB 251700
TAFCWA
TAF
KCWA 251732Z 2518/2618 28007KT P6SM -SN BKN017
      TEMPO 2518/2521 SCT017
     FM252100 27007KT P6SM SCT017 BKN035
     FM260000 00000KT P6SM BKN250
     FM260700 11003KT 4SM BR BKN250
     FM261100 00000KT 2SM BR SCT100 BKN200
     FM261600 06003KT 6SM HZ SCT080 BKN150=

USA.gov is the U.S. government's official web portal to all federal, state and local government web resources and services.